createdAt,value
2019-06-10T00:01:21.330Z,2.37
2019-06-10T00:04:09.595Z,2.60
2019-06-10T00:06:55.816Z,2.50
2019-06-10T00:09:42.005Z,2.20
2019-06-10T00:12:31.594Z,2.10
2019-06-10T00:15:17.988Z,2.30
2019-06-10T00:18:33.430Z,2.03
2019-06-10T00:20:55.364Z,2.70
2019-06-10T00:23:45.971Z,2.10
2019-06-10T00:26:31.924Z,2.40
2019-06-10T00:29:18.293Z,2.50
2019-06-10T00:32:13.362Z,2.20
2019-06-10T00:35:02.859Z,2.90
2019-06-10T00:37:51.069Z,2.30
2019-06-10T00:40:37.174Z,2.10
2019-06-10T00:43:23.223Z,2.80
2019-06-10T00:46:12.813Z,2.47
2019-06-10T00:48:57.511Z,2.53
2019-06-10T00:51:43.833Z,2.67
2019-06-10T00:54:31.257Z,2.03
2019-06-10T00:57:17.448Z,2.43
2019-06-10T01:00:14.602Z,2.70
2019-06-10T01:02:52.169Z,2.33
2019-06-10T01:05:38.448Z,2.60
2019-06-10T01:08:24.994Z,2.10
2019-06-10T01:11:20.379Z,1.80
2019-06-10T01:14:01.482Z,2.50
2019-06-10T01:16:47.937Z,2.57
2019-06-10T01:19:36.296Z,2.40
2019-06-10T01:22:22.634Z,2.20
2019-06-10T01:25:09.982Z,2.20
2019-06-10T01:27:56.446Z,1.93
2019-06-10T01:30:43.027Z,2.27
2019-06-10T01:33:31.690Z,2.40
2019-06-10T01:36:21.034Z,2.50
2019-06-10T01:39:08.781Z,2.33
2019-06-10T01:41:55.510Z,2.23
2019-06-10T01:44:41.617Z,2.43
2019-06-10T01:47:27.997Z,2.30
2019-06-10T01:50:17.219Z,2.10
2019-06-10T01:53:02.538Z,2.43
2019-06-10T01:55:48.501Z,2.60
2019-06-10T01:58:34.396Z,2.30
2019-06-10T02:01:27.696Z,2.30
2019-06-10T02:04:16.186Z,2.23
2019-06-10T02:07:02.886Z,2.33
2019-06-10T02:09:51.771Z,2.27
2019-06-10T02:12:38.269Z,2.10
2019-06-10T02:15:24.548Z,2.30
2019-06-10T02:18:13.315Z,1.90
2019-06-10T02:21:00.890Z,2.40
2019-06-10T02:23:48.859Z,2.80
2019-06-10T02:26:35.740Z,2.27
2019-06-10T02:29:23.434Z,2.20
2019-06-10T02:32:12.919Z,2.63
2019-06-10T02:35:14.464Z,2.20
2019-06-10T02:37:45.037Z,2.07
2019-06-10T02:40:35.769Z,2.40
2019-06-10T02:43:31.070Z,2.40
2019-06-10T02:46:13.093Z,2.60
2019-06-10T02:49:16.421Z,2.23
2019-06-10T02:51:45.176Z,2.20
2019-06-10T02:54:35.588Z,2.30
2019-06-10T02:57:24.658Z,2.37
2019-06-10T03:00:19.856Z,2.23
2019-06-10T03:02:56.395Z,1.77
2019-06-10T03:05:46.449Z,2.20
2019-06-10T03:08:32.790Z,2.10
2019-06-10T03:11:19.235Z,1.83
2019-06-10T03:14:05.965Z,2.10
2019-06-10T03:16:56.173Z,2.17
2019-06-10T03:19:50.176Z,1.77
2019-06-10T03:22:32.778Z,2.00
2019-06-10T03:25:18.757Z,2.23
2019-06-10T03:28:05.097Z,2.07
2019-06-10T03:30:55.347Z,2.40
2019-06-10T03:33:42.079Z,2.20
2019-06-10T03:36:27.296Z,2.27
2019-06-10T03:39:13.614Z,2.13
2019-06-10T03:42:02.120Z,2.23
2019-06-10T03:44:47.967Z,2.40
2019-06-10T03:47:33.726Z,2.27
2019-06-10T03:50:21.877Z,2.10
2019-06-10T03:53:08.087Z,1.90
2019-06-10T03:55:53.855Z,2.07
2019-06-10T03:58:39.788Z,2.30
2019-06-10T04:01:28.631Z,2.30
2019-06-10T04:04:14.144Z,2.03
2019-06-10T04:07:03.588Z,2.23
2019-06-10T04:09:48.360Z,2.30
2019-06-10T04:12:34.672Z,1.97
2019-06-10T04:15:24.851Z,2.50
2019-06-10T04:18:08.881Z,2.43
2019-06-10T04:20:55.077Z,2.20
2019-06-10T04:23:42.359Z,2.40
2019-06-10T04:26:29.682Z,2.70
2019-06-10T04:29:16.179Z,2.40
2019-06-10T04:32:03.034Z,2.67
2019-06-10T04:34:49.518Z,2.30
2019-06-10T04:37:36.142Z,2.67
2019-06-10T04:40:23.532Z,2.17
2019-06-10T04:43:12.294Z,2.50
2019-06-10T04:45:57.816Z,2.13
2019-06-10T04:48:43.711Z,2.10
2019-06-10T04:51:30.060Z,2.40
2019-06-10T04:54:16.345Z,2.80
2019-06-10T04:57:02.821Z,2.33
2019-06-10T04:59:49.112Z,2.40
2019-06-10T05:02:35.348Z,3.20
2019-06-10T05:05:23.641Z,2.47
2019-06-10T05:08:09.179Z,2.70
2019-06-10T05:10:55.607Z,2.77
2019-06-10T05:13:42.867Z,2.53
2019-06-10T05:16:32.163Z,2.00
2019-06-10T05:19:17.354Z,2.30
2019-06-10T05:22:03.648Z,2.20
2019-06-10T05:24:49.565Z,2.37
2019-06-10T05:27:35.845Z,2.27
2019-06-10T05:30:22.796Z,1.97
2019-06-10T05:33:09.686Z,2.17
2019-06-10T05:35:56.002Z,2.10
2019-06-10T05:38:43.575Z,2.13
2019-06-10T05:41:31.583Z,2.30
2019-06-10T05:44:18.198Z,2.30
2019-06-10T05:47:04.720Z,2.03
2019-06-10T05:49:52.824Z,2.30
2019-06-10T05:52:38.808Z,2.43
2019-06-10T05:55:25.539Z,2.50
2019-06-10T05:58:12.917Z,2.07
2019-06-10T06:00:59.484Z,2.00
2019-06-10T06:03:45.777Z,2.40
2019-06-10T06:06:33.429Z,2.20
2019-06-10T06:09:21.999Z,2.17
2019-06-10T06:12:10.490Z,2.40
2019-06-10T06:14:55.387Z,2.20
2019-06-10T06:17:43.229Z,2.10
2019-06-10T06:20:29.571Z,2.27
2019-06-10T06:23:15.331Z,2.50
2019-06-10T06:26:03.905Z,2.10
2019-06-10T06:28:49.703Z,2.37
2019-06-10T06:31:36.523Z,2.10
2019-06-10T06:34:23.732Z,2.20
2019-06-10T06:37:12.606Z,2.20
2019-06-10T06:39:57.904Z,2.10
2019-06-10T06:42:44.137Z,1.70
2019-06-10T06:45:33.053Z,2.30
2019-06-10T06:48:18.363Z,2.00
2019-06-10T06:51:08.236Z,1.73
2019-06-10T06:53:56.121Z,2.00
2019-06-10T06:56:41.094Z,2.00
2019-06-10T06:59:29.179Z,2.00
2019-06-10T07:02:15.623Z,2.03
2019-06-10T07:05:03.154Z,2.10
2019-06-10T07:07:50.123Z,1.80
2019-06-10T07:10:38.807Z,2.13
2019-06-10T07:13:25.047Z,1.90
2019-06-10T07:16:13.127Z,2.00
2019-06-10T07:18:59.047Z,1.77
2019-06-10T07:22:07.472Z,2.10
2019-06-10T07:24:36.029Z,1.93
2019-06-10T07:27:22.641Z,2.00
2019-06-10T07:30:12.465Z,1.80
2019-06-10T07:32:57.191Z,1.83
2019-06-10T07:35:45.149Z,2.23
2019-06-10T07:38:33.840Z,1.70
2019-06-10T07:41:19.062Z,1.80
2019-06-10T07:44:05.505Z,1.97
2019-06-10T07:46:52.996Z,1.90
2019-06-10T07:49:39.613Z,1.90
2019-06-10T07:52:26.098Z,1.73
2019-06-10T07:55:12.859Z,2.03
2019-06-10T07:57:59.136Z,1.97
2019-06-10T08:00:48.192Z,1.90
2019-06-10T08:03:34.915Z,1.67
2019-06-10T08:06:22.989Z,1.80
2019-06-10T08:09:09.084Z,1.80
2019-06-10T08:11:55.316Z,1.70
2019-06-10T08:14:42.761Z,1.50
2019-06-10T08:17:34.111Z,1.90
2019-06-10T08:20:39.173Z,2.20
2019-06-10T08:23:25.328Z,1.73
2019-06-10T08:26:12.633Z,1.77
2019-06-10T08:28:58.967Z,1.63
2019-06-10T08:31:49.455Z,1.93
2019-06-10T08:34:33.164Z,1.70
2019-06-10T08:37:19.561Z,1.57
2019-06-10T08:40:06.083Z,1.60
2019-06-10T08:42:53.724Z,1.70
2019-06-10T08:45:43.316Z,1.90
2019-06-10T08:48:28.110Z,1.77
2019-06-10T08:51:14.139Z,1.30
2019-06-10T08:54:02.316Z,1.60
2019-06-10T08:56:50.767Z,1.83
2019-06-10T08:59:38.351Z,1.60
2019-06-10T09:02:24.228Z,1.70
2019-06-10T09:05:12.586Z,2.20
2019-06-10T09:07:59.139Z,1.93
2019-06-10T09:10:49.128Z,1.60
2019-06-10T09:13:33.620Z,1.50
2019-06-10T09:16:22.891Z,1.60
2019-06-10T09:19:08.532Z,1.60
2019-06-10T09:21:56.289Z,1.47
2019-06-10T09:24:47.045Z,1.50
2019-06-10T09:27:32.642Z,1.60
2019-06-10T09:30:17.932Z,1.87
2019-06-10T09:33:04.901Z,1.50
2019-06-10T09:35:54.859Z,1.67
2019-06-10T09:38:40.653Z,1.43
2019-06-10T09:41:36.488Z,1.73
2019-06-10T09:44:14.472Z,1.50
2019-06-10T09:47:03.514Z,1.67
2019-06-10T09:49:55.341Z,1.47
2019-06-10T09:52:41.554Z,1.60
2019-06-10T09:55:32.891Z,1.40
2019-06-10T09:58:18.528Z,1.70
2019-06-10T10:01:04.986Z,1.40
2019-06-10T10:03:58.287Z,1.67
2019-06-10T10:06:39.321Z,1.43
2019-06-10T10:09:25.391Z,1.57
2019-06-10T10:12:12.198Z,1.50
2019-06-10T10:14:58.597Z,1.83
2019-06-10T10:17:47.644Z,1.60
2019-06-10T10:20:34.069Z,1.47
2019-06-10T10:23:22.684Z,1.50
2019-06-10T10:26:08.363Z,1.60
2019-06-10T10:28:56.892Z,1.67
2019-06-10T10:31:45.231Z,1.37
2019-06-10T10:34:30.321Z,1.70
2019-06-10T10:37:16.808Z,1.73
2019-06-10T10:40:04.182Z,1.97
2019-06-10T10:42:58.716Z,2.03
2019-06-10T10:45:37.939Z,1.87
2019-06-10T10:48:24.187Z,2.00
2019-06-10T10:51:12.619Z,2.07
2019-06-10T10:54:29.314Z,2.03
2019-06-10T10:56:47.762Z,1.90
2019-06-10T10:59:33.544Z,2.00
2019-06-10T11:02:19.548Z,2.20
2019-06-10T11:05:06.044Z,2.00
2019-06-10T11:07:54.813Z,2.00
2019-06-10T11:10:39.916Z,2.20
2019-06-10T11:13:26.812Z,2.23
2019-06-10T11:16:13.509Z,2.67
2019-06-10T11:19:02.175Z,2.47
2019-06-10T11:21:47.787Z,1.90
2019-06-10T11:24:40.615Z,2.00
2019-06-10T11:27:22.760Z,2.27
2019-06-10T11:30:09.087Z,1.97
2019-06-10T11:32:57.239Z,2.13
2019-06-10T11:35:43.473Z,2.00
2019-06-10T11:38:33.111Z,2.17
2019-06-10T11:41:19.424Z,2.00
2019-06-10T11:44:05.836Z,2.10
2019-06-10T11:46:54.539Z,1.90
2019-06-10T11:49:39.564Z,1.90
2019-06-10T11:52:25.551Z,2.07
2019-06-10T11:55:18.411Z,2.10
2019-06-10T11:57:59.783Z,1.80
2019-06-10T12:00:46.124Z,1.70
2019-06-10T12:03:32.539Z,2.10
2019-06-10T12:06:18.433Z,2.20
2019-06-10T12:09:06.668Z,1.90
2019-06-10T12:11:56.249Z,2.00
2019-06-10T12:14:40.341Z,1.97
2019-06-10T12:17:41.848Z,2.10
2019-06-10T12:20:14.605Z,2.10
2019-06-10T12:23:04.401Z,1.83
2019-06-10T12:25:49.727Z,2.43
2019-06-10T12:28:35.836Z,2.10
2019-06-10T12:31:23.124Z,1.70
2019-06-10T12:34:09.407Z,2.00
2019-06-10T12:36:59.517Z,1.80
2019-06-10T12:39:43.067Z,2.00
2019-06-10T12:42:28.785Z,1.80
2019-06-10T12:45:15.478Z,2.03
2019-06-10T12:48:05.067Z,2.00
2019-06-10T12:50:49.264Z,1.80
2019-06-10T12:53:35.528Z,2.00
2019-06-10T12:56:22.732Z,1.80
2019-06-10T12:59:10.132Z,2.03
2019-06-10T13:01:58.053Z,1.83
2019-06-10T13:04:44.985Z,2.10
2019-06-10T13:07:32.526Z,1.90
2019-06-10T13:10:37.999Z,1.80
2019-06-10T13:13:24.080Z,1.57
2019-06-10T13:16:14.071Z,1.83
2019-06-10T13:18:59.928Z,1.90
2019-06-10T13:21:46.092Z,2.03
2019-06-10T13:24:33.761Z,1.90
2019-06-10T13:27:22.633Z,1.80
2019-06-10T13:30:08.422Z,2.10
2019-06-10T13:32:54.551Z,2.00
2019-06-10T13:35:41.758Z,2.17
2019-06-10T13:38:28.416Z,2.00
2019-06-10T13:41:14.787Z,1.90
2019-06-10T13:44:02.102Z,2.33
2019-06-10T13:46:48.500Z,2.00
2019-06-10T13:49:34.771Z,2.00
2019-06-10T13:52:23.371Z,1.90
2019-06-10T13:55:13.002Z,1.70
2019-06-10T13:57:57.247Z,2.03
2019-06-10T14:00:46.638Z,2.00
2019-06-10T14:03:32.655Z,1.70
2019-06-10T14:06:34.198Z,1.77
2019-06-10T14:09:09.458Z,1.80
2019-06-10T14:11:54.540Z,1.60
2019-06-10T14:14:42.519Z,1.60
2019-06-10T16:07:06.656Z,1.40
2019-06-10T16:09:53.324Z,1.40
2019-06-10T16:12:39.780Z,1.70
2019-06-10T16:15:26.669Z,1.97
2019-06-10T16:18:13.687Z,1.50
2019-06-10T16:21:03.972Z,1.53
2019-06-10T16:23:48.728Z,1.63
2019-06-10T16:26:35.603Z,1.80
2019-06-10T16:29:24.219Z,1.40
2019-06-10T16:32:09.787Z,1.30
2019-06-10T16:34:56.212Z,1.53
2019-06-10T16:37:42.677Z,1.57
2019-06-10T16:40:28.908Z,1.50
2019-06-10T16:43:15.629Z,1.80
2019-06-10T16:46:03.349Z,1.67
2019-06-10T16:48:49.302Z,1.80
2019-06-10T16:51:35.701Z,1.50
2019-06-10T16:54:23.554Z,1.87
2019-06-10T16:57:12.191Z,1.60
2019-06-10T16:59:57.440Z,1.40
2019-06-10T17:02:43.435Z,1.70
2019-06-10T17:05:30.508Z,1.53
2019-06-10T17:08:17.734Z,1.50
2019-06-10T17:11:03.937Z,1.77
2019-06-10T17:13:52.558Z,1.50
2019-06-10T17:16:40.570Z,1.30
2019-06-10T17:19:27.405Z,1.50
2019-06-10T17:22:13.785Z,1.60
2019-06-10T17:25:00.071Z,1.40
2019-06-10T17:27:46.063Z,1.40
2019-06-10T17:30:34.775Z,1.50
2019-06-10T17:33:22.435Z,1.33
2019-06-10T17:36:08.016Z,1.70
2019-06-10T17:38:54.254Z,1.70
2019-06-10T17:41:42.524Z,2.07
2019-06-10T17:44:30.363Z,2.30
2019-06-10T17:47:16.173Z,1.70
2019-06-10T17:50:02.460Z,1.63
2019-06-10T17:52:48.835Z,2.10
2019-06-10T17:55:35.698Z,1.60
2019-06-10T17:58:34.496Z,1.70
2019-06-10T18:01:09.791Z,1.57
2019-06-10T18:03:59.313Z,1.60
2019-06-10T18:06:55.232Z,1.87
2019-06-10T18:09:41.429Z,1.80
2019-06-10T18:12:27.988Z,1.50
2019-06-10T18:15:14.263Z,1.30
2019-06-10T18:18:03.305Z,1.53
2019-06-10T18:20:48.548Z,1.70
2019-06-10T18:23:35.206Z,1.60
2019-06-10T18:26:23.091Z,1.40
2019-06-10T18:29:09.752Z,1.20
2019-06-10T18:31:56.987Z,1.60
2019-06-10T18:34:42.794Z,1.63
2019-06-10T18:37:30.393Z,1.47
2019-06-10T18:40:17.290Z,1.33
2019-06-10T18:43:03.298Z,1.60
2019-06-10T18:45:49.203Z,1.23
2019-06-10T18:48:37.867Z,1.33
2019-06-10T18:51:23.356Z,1.50
2019-06-10T18:54:09.764Z,1.40
2019-06-10T18:56:56.108Z,1.47
2019-06-10T18:59:42.821Z,1.40
2019-06-10T19:02:30.321Z,1.63
2019-06-10T19:05:17.327Z,1.50
2019-06-10T19:08:03.044Z,1.40
2019-06-10T19:10:53.374Z,1.40
2019-06-10T19:13:39.180Z,1.57
2019-06-10T19:16:26.004Z,1.60
2019-06-10T19:19:12.786Z,1.47
2019-06-10T19:22:06.210Z,1.60
2019-06-10T19:24:47.227Z,1.40
2019-06-10T19:27:34.814Z,1.30
2019-06-10T19:30:23.278Z,1.57
2019-06-10T19:33:09.360Z,1.40
2019-06-10T19:35:55.721Z,1.20
2019-06-10T19:38:43.886Z,1.40
2019-06-10T19:41:30.205Z,1.40
2019-06-10T19:44:16.456Z,1.40
2019-06-10T19:47:03.109Z,1.43
2019-06-10T19:49:49.200Z,1.50
2019-06-10T19:52:36.764Z,1.50
2019-06-10T19:55:23.975Z,1.47
2019-06-10T19:58:10.600Z,1.50
2019-06-10T20:00:57.487Z,1.53
2019-06-10T20:03:46.501Z,1.63
2019-06-10T20:06:32.343Z,1.50
2019-06-10T20:09:18.208Z,1.43
2019-06-10T20:12:03.996Z,1.60
2019-06-10T20:14:52.734Z,1.37
2019-06-10T20:17:39.410Z,1.80
2019-06-10T20:20:26.074Z,1.97
2019-06-10T20:23:12.571Z,1.23
2019-06-10T20:26:01.795Z,1.50
2019-06-10T20:28:52.202Z,1.63
2019-06-10T20:31:36.035Z,1.40
2019-06-10T20:34:24.456Z,1.47
2019-06-10T20:37:10.312Z,1.60
2019-06-10T20:39:56.665Z,1.30
2019-06-10T20:42:44.373Z,1.60
2019-06-10T20:45:32.920Z,1.80
2019-06-10T20:48:18.231Z,1.37
2019-06-10T20:51:04.725Z,1.43
2019-06-10T20:53:53.326Z,1.50
2019-06-10T20:56:38.931Z,1.43
2019-06-10T20:59:25.991Z,1.60
2019-06-10T21:02:13.563Z,1.30
2019-06-10T21:05:02.588Z,1.60
2019-06-10T21:07:48.855Z,1.63
2019-06-10T21:10:36.160Z,1.83
2019-06-10T21:13:22.664Z,1.50
2019-06-10T21:16:09.034Z,1.50
2019-06-10T21:18:55.879Z,1.53
2019-06-10T21:21:45.273Z,1.67
2019-06-10T21:24:32.225Z,1.70
2019-06-10T21:27:18.063Z,1.60
2019-06-10T21:30:11.155Z,1.33
2019-06-10T21:32:54.675Z,1.60
2019-06-10T21:35:42.458Z,1.57
2019-06-10T21:38:27.666Z,1.60
2019-06-10T21:41:13.508Z,1.43
2019-06-10T21:43:59.698Z,1.50
2019-06-10T21:46:47.610Z,1.67
2019-06-10T21:49:34.184Z,1.47
2019-06-10T21:52:19.999Z,1.87
2019-06-10T21:55:06.782Z,1.60
2019-06-10T21:57:55.135Z,1.50
2019-06-10T22:00:55.675Z,1.40
2019-06-10T22:03:34.572Z,1.80
2019-06-10T22:06:22.601Z,1.60
2019-06-10T22:09:08.292Z,1.70
2019-06-10T22:11:55.781Z,1.90
2019-06-10T22:14:42.294Z,1.80
2019-06-10T22:17:28.845Z,1.90
2019-06-10T22:20:15.123Z,1.73
2019-06-10T22:23:02.612Z,1.97
2019-06-10T22:25:48.802Z,1.80
2019-06-10T22:28:35.223Z,1.93
2019-06-10T22:31:23.547Z,1.63
2019-06-10T22:34:08.924Z,1.90
2019-06-10T22:36:56.156Z,1.97
2019-06-10T22:39:42.797Z,1.93
2019-06-10T22:42:29.148Z,2.20
2019-06-10T22:45:15.648Z,2.07
2019-06-10T22:48:03.024Z,1.97
2019-06-10T22:50:50.903Z,1.90
2019-06-10T22:53:37.513Z,1.80
2019-06-10T22:56:23.947Z,2.10
2019-06-10T22:59:13.043Z,2.10
2019-06-10T23:02:17.804Z,2.23
2019-06-10T23:05:05.401Z,1.97
2019-06-10T23:07:53.255Z,2.23
2019-06-10T23:10:39.889Z,2.07
2019-06-10T23:13:25.707Z,2.30
2019-06-10T23:16:12.999Z,2.23
2019-06-10T23:18:59.897Z,2.60
2019-06-10T23:21:45.702Z,2.10
2019-06-10T23:24:32.344Z,2.03
2019-06-10T23:27:19.044Z,2.50
2019-06-10T23:30:11.467Z,2.30
2019-06-10T23:32:55.839Z,2.50
2019-06-10T23:35:43.035Z,2.40
2019-06-10T23:38:28.948Z,2.43
2019-06-10T23:41:15.246Z,2.50
2019-06-10T23:44:04.088Z,2.37
2019-06-10T23:46:49.568Z,2.33
2019-06-10T23:49:35.951Z,2.30
2019-06-10T23:52:22.275Z,2.40
2019-06-10T23:55:08.774Z,2.70
2019-06-10T23:57:56.201Z,2.13
